Time;durP1;ratioP1;P1;durP2;ratioP2;P2;SDS_P1;SDS_P2;PMS_P1;PMS_P2;Temp;Humidity;BMP_temperature;BMP_pressure;BME280_temperature;BME280_humidity;BME280_pressure;Samples;Min_cycle;Max_cycle;Signal;HPM_P1;HPM_P2
2023/12/08 00:00:07;;;;;;;21.20;20.20;;;;;;;-141.02;100.00;53403.41;5093394;28;20198;-79
2023/12/08 00:02:34;;;;;;;22.60;21.50;;;;;;;-141.02;100.00;53276.31;5093082;28;20196;-79
2023/12/08 00:05:01;;;;;;;22.47;21.37;;;;;;;-141.02;100.00;53314.84;5092976;28;20225;-78
2023/12/08 00:07:28;;;;;;;22.10;21.00;;;;;;;-141.02;100.00;54119.88;5093283;28;20277;-78
2023/12/08 00:09:55;;;;;;;22.70;21.60;;;;;;;-141.02;100.00;54378.00;5092718;28;20316;-80
2023/12/08 00:12:23;;;;;;;22.90;21.80;;;;;;;-141.02;100.00;54482.03;5092838;28;20281;-78
2023/12/08 00:14:50;;;;;;;22.10;21.00;;;;;;;-141.02;100.00;54293.25;5092844;28;20682;-80
2023/12/08 00:17:17;;;;;;;22.80;21.70;;;;;;;-141.02;100.00;53707.72;5092776;28;20198;-78
2023/12/08 00:19:44;;;;;;;22.70;21.60;;;;;;;-141.02;100.00;53798.22;5093091;28;20272;-78
2023/12/08 00:22:11;;;;;;;22.83;21.73;;;;;;;-141.02;100.00;53264.75;5093323;28;20204;-80
2023/12/08 00:24:38;;;;;;;23.37;22.27;;;;;;;-141.02;100.00;53122.28;5092691;28;20229;-79
2023/12/08 00:27:07;;;;;;;23.83;22.63;;;;;;;-141.02;100.00;52594.69;5092678;28;20292;-80
2023/12/08 00:29:35;;;;;;;22.70;21.60;;;;;;;-141.02;100.00;52642.81;5092523;28;20194;-79
2023/12/08 00:32:02;;;;;;;22.77;21.67;;;;;;;-141.02;100.00;53384.16;5092518;28;20659;-81
2023/12/08 00:34:29;;;;;;;23.13;22.03;;;;;;;-141.02;100.00;54351.03;5092799;28;20194;-79
2023/12/08 00:36:57;;;;;;;23.10;21.93;;;;;;;-141.02;100.00;54553.28;5093355;28;20198;-79
2023/12/08 00:39:24;;;;;;;22.57;21.47;;;;;;;-141.02;100.00;54073.66;5092712;28;20193;-80
2023/12/08 00:41:51;;;;;;;22.63;21.53;;;;;;;-141.02;100.00;54160.34;5092670;28;20194;-78
2023/12/08 00:44:18;;;;;;;21.27;20.27;;;;;;;-141.02;100.00;53877.19;5092206;28;20598;-81
2023/12/08 00:46:46;;;;;;;20.53;19.63;;;;;;;-141.02;100.00;53909.94;5092577;28;20284;-80
2023/12/08 00:49:13;;;;;;;19.60;18.70;;;;;;;-141.02;100.00;54177.66;5092608;28;20257;-78
2023/12/08 00:51:40;;;;;;;21.07;20.17;;;;;;;-141.02;100.00;54435.78;5092213;28;20233;-78
2023/12/08 00:54:07;;;;;;;20.40;19.50;;;;;;;-141.02;100.00;54027.44;5092293;28;20292;-78
2023/12/08 00:56:34;;;;;;;19.97;19.07;;;;;;;-141.02;100.00;53457.34;5092166;28;20748;-78
2023/12/08 00:59:01;;;;;;;19.43;18.63;;;;;;;-141.02;100.00;53026.00;5092164;28;20197;-80
2023/12/08 01:01:28;;;;;;;19.77;18.87;;;;;;;-141.02;100.00;52629.34;5092128;28;20204;-79
2023/12/08 01:03:56;;;;;;;19.10;18.30;;;;;;;-141.02;100.00;52484.94;5092118;28;20299;-78
2023/12/08 01:06:23;;;;;;;17.90;17.10;;;;;;;-141.02;100.00;52633.19;5092184;28;20285;-77
2023/12/08 01:08:50;;;;;;;18.23;17.43;;;;;;;-141.02;100.00;52425.28;5092485;28;20198;-80
2023/12/08 01:11:17;;;;;;;18.03;17.33;;;;;;;-141.02;100.00;52026.78;5091928;28;20260;-80
2023/12/08 01:13:44;;;;;;;17.90;17.20;;;;;;;-141.02;100.00;51776.53;5091926;28;20668;-78
2023/12/08 01:16:14;;;;;;;18.43;17.70;;;;;;;-141.02;100.00;51270.34;5091984;28;20656;-79
2023/12/08 01:18:40;;;;;;;17.27;16.57;;;;;;;-141.02;100.00;51304.97;5091910;28;20582;-79
2023/12/08 01:21:09;;;;;;;18.00;17.30;;;;;;;-141.02;100.00;51224.16;5091920;28;20671;-79
2023/12/08 01:23:36;;;;;;;17.23;16.53;;;;;;;-141.02;100.00;50727.66;5091884;28;20687;-78
2023/12/08 01:26:06;;;;;;;15.87;15.27;;;;;;;-141.02;100.00;50177.38;5091919;28;20190;-78
2023/12/08 01:28:33;;;;;;;15.87;15.17;;;;;;;-141.02;100.00;49777.22;5091958;28;20276;-79
2023/12/08 01:31:00;;;;;;;16.30;15.70;;;;;;;-141.02;100.00;49886.88;5091899;28;20255;-78
2023/12/08 01:33:33;;;;;;;15.50;14.80;;;;;;;-141.02;100.00;49715.66;5092136;28;20204;-80
2023/12/08 01:36:00;;;;;;;22.27;21.37;;;;;;;-141.02;100.00;49411.72;5092154;28;20193;-80
2023/12/08 01:38:30;;;;;;;20.97;20.17;;;;;;;-141.02;100.00;48892.44;5092117;28;20194;-79
2023/12/08 01:40:57;;;;;;;14.30;13.80;;;;;;;-141.02;100.00;48605.88;5092379;28;20198;-78
2023/12/08 01:43:23;;;;;;;13.50;13.10;;;;;;;-141.02;100.00;48380.91;5095048;28;20668;-79
2023/12/08 01:45:57;;;;;;;14.37;13.87;;;;;;;-141.02;100.00;48146.31;5095562;28;20695;-78
2023/12/08 01:48:25;;;;;;;15.47;14.87;;;;;;;-141.02;100.00;47757.94;5095953;28;20652;-78
2023/12/08 01:50:52;;;;;;;15.27;14.73;;;;;;;-141.02;100.00;47531.06;5095556;28;20651;-79
2023/12/08 01:53:19;;;;;;;15.80;15.20;;;;;;;-141.02;100.00;47394.59;5095405;28;20612;-79
2023/12/08 01:55:47;;;;;;;15.93;15.33;;;;;;;-141.02;100.00;47342.69;5095805;28;20284;-80
2023/12/08 01:58:15;;;;;;;15.20;14.70;;;;;;;-141.02;100.00;47302.31;5095497;28;20747;-79
2023/12/08 02:00:43;;;;;;;15.07;14.57;;;;;;;-141.02;100.00;47092.78;5095655;28;20194;-79
2023/12/08 02:03:10;;;;;;;14.87;14.37;;;;;;;-141.02;100.00;47135.06;5095750;28;20225;-79
2023/12/08 02:05:40;;;;;;;14.97;14.47;;;;;;;-141.02;100.00;47225.41;5095192;28;20237;-80
2023/12/08 02:08:07;;;;;;;14.83;14.33;;;;;;;-141.02;100.00;46969.78;5095247;28;20288;-79
2023/12/08 02:10:34;;;;;;;15.17;14.67;;;;;;;-141.02;100.00;47173.53;5094994;28;20228;-80
2023/12/08 02:13:03;;;;;;;14.93;14.43;;;;;;;-141.02;100.00;47177.38;5095219;28;20197;-79
2023/12/08 02:15:30;;;;;;;14.80;14.30;;;;;;;-141.02;100.00;46756.44;5095123;28;20198;-80
2023/12/08 02:17:58;;;;;;;14.63;14.13;;;;;;;-141.02;100.00;46364.38;5095324;28;20333;-78
2023/12/08 02:20:25;;;;;;;14.97;14.47;;;;;;;-141.02;100.00;46128.00;5095038;28;20686;-78
2023/12/08 02:22:52;;;;;;;16.17;15.57;;;;;;;-141.02;100.00;46347.06;5094920;28;20680;-78
2023/12/08 02:25:21;;;;;;;15.97;15.37;;;;;;;-141.02;100.00;46477.75;5094865;28;20228;-78
2023/12/08 02:27:47;;;;;;;16.10;15.50;;;;;;;-141.02;100.00;46381.66;5095264;28;20190;-79
2023/12/08 02:30:16;;;;;;;16.20;15.60;;;;;;;-141.02;100.00;46541.16;5095228;28;20581;-78
2023/12/08 02:32:51;;;;;;;15.60;15.10;;;;;;;-141.02;100.00;46358.59;5095093;28;20575;-78
2023/12/08 02:35:21;;;;;;;17.37;16.67;;;;;;;-141.02;100.00;46525.78;5094997;28;20217;-79
2023/12/08 02:37:53;;;;;;;15.93;15.33;;;;;;;-141.02;100.00;46299.03;5094712;28;20284;-79
2023/12/08 02:40:21;;;;;;;17.00;16.30;;;;;;;-141.02;100.00;46104.94;5094992;28;20190;-78
2023/12/08 02:42:48;;;;;;;17.83;17.13;;;;;;;-141.02;100.00;45847.44;5094936;28;20194;-79
2023/12/08 02:45:15;;;;;;;19.63;18.73;;;;;;;-141.02;100.00;45916.63;5094496;28;20313;-78
2023/12/08 02:47:42;;;;;;;19.03;18.23;;;;;;;-141.02;100.00;45532.34;5094772;28;20271;-78
2023/12/08 02:50:09;;;;;;;18.93;18.13;;;;;;;-141.02;100.00;45574.63;5094430;28;20194;-79
2023/12/08 02:52:36;;;;;;;17.50;16.80;;;;;;;-141.02;100.00;45728.31;5094334;28;20220;-78
2023/12/08 02:55:04;;;;;;;17.23;16.53;;;;;;;-141.02;100.00;45474.72;5094599;28;20198;-78
2023/12/08 02:57:32;;;;;;;16.27;15.67;;;;;;;-141.02;100.00;45513.13;5094378;28;20634;-79
2023/12/08 02:59:59;;;;;;;16.83;16.20;;;;;;;-141.02;100.00;45774.44;5094596;28;20229;-79
2023/12/08 03:02:26;;;;;;;17.67;16.97;;;;;;;-141.02;100.00;45857.06;5094536;28;20202;-79
2023/12/08 03:04:53;;;;;;;18.10;17.40;;;;;;;-141.02;100.00;46385.50;5094153;28;20658;-78
2023/12/08 03:07:20;;;;;;;18.60;17.80;;;;;;;-141.02;100.00;46641.09;5094166;28;20197;-79
2023/12/08 03:09:47;;;;;;;19.00;18.20;;;;;;;-141.02;100.00;46331.69;5094120;28;20233;-78
2023/12/08 03:12:13;;;;;;;18.43;17.63;;;;;;;-141.02;100.00;46227.91;5094401;28;20204;-78
2023/12/08 03:14:42;;;;;;;19.00;18.20;;;;;;;-141.02;100.00;46560.38;5094317;28;20239;-79
2023/12/08 03:17:09;;;;;;;19.20;18.30;;;;;;;-141.02;100.00;46962.09;5093881;28;20356;-78
2023/12/08 03:19:36;;;;;;;16.30;15.70;;;;;;;-141.02;100.00;46564.22;5093879;28;20196;-78
2023/12/08 03:22:03;;;;;;;18.10;17.30;;;;;;;-141.02;100.00;45830.16;5094094;28;20198;-79
2023/12/08 03:24:30;;;;;;;19.40;18.50;;;;;;;-141.02;100.00;46191.41;5094078;28;20232;-78
2023/12/08 03:26:57;;;;;;;20.30;19.40;;;;;;;-141.02;100.00;46656.47;5093979;28;20192;-79
2023/12/08 03:29:24;;;;;;;20.00;19.10;;;;;;;-141.02;100.00;46700.69;5094003;28;20193;-79
2023/12/08 03:31:52;;;;;;;18.27;17.47;;;;;;;-141.02;100.00;46158.75;5093649;28;20576;-79
2023/12/08 03:34:19;;;;;;;18.50;17.70;;;;;;;-141.02;100.00;46128.00;5093597;28;20204;-78
2023/12/08 03:36:46;;;;;;;19.13;18.27;;;;;;;-141.02;100.00;45943.53;5093914;28;20293;-79
2023/12/08 03:39:13;;;;;;;18.30;17.50;;;;;;;-141.02;100.00;46054.97;5093577;28;20201;-79
2023/12/08 03:41:40;;;;;;;19.03;18.23;;;;;;;-141.02;100.00;46496.97;5093478;28;20284;-79
2023/12/08 03:44:07;;;;;;;17.83;17.13;;;;;;;-141.02;100.00;46654.56;5093415;28;20663;-80
2023/12/08 03:46:34;;;;;;;18.47;17.67;;;;;;;-141.02;100.00;46892.88;5093364;28;20225;-79
2023/12/08 03:49:02;;;;;;;19.00;18.20;;;;;;;-141.02;100.00;47065.88;5093289;28;20566;-78
2023/12/08 03:51:31;;;;;;;17.23;16.53;;;;;;;-141.02;100.00;47140.84;5093198;28;20193;-78
2023/12/08 03:53:58;;;;;;;17.97;17.27;;;;;;;-141.02;100.00;46758.34;5093533;28;20558;-77
2023/12/08 03:56:25;;;;;;;18.90;18.10;;;;;;;-141.02;100.00;46520.03;5093094;28;20189;-78
2023/12/08 03:58:52;;;;;;;17.30;16.60;;;;;;;-141.02;100.00;46124.16;5093412;28;20194;-79
2023/12/08 04:01:19;;;;;;;17.33;16.63;;;;;;;-141.02;100.00;46047.28;5093089;28;20280;-78
2023/12/08 04:03:46;;;;;;;15.83;15.23;;;;;;;-141.02;100.00;45935.84;5093373;28;20276;-78
2023/12/08 04:06:15;;;;;;;15.73;15.13;;;;;;;-141.02;100.00;45686.06;5092692;28;20229;-78
2023/12/08 04:08:41;;;;;;;15.77;15.17;;;;;;;-141.02;100.00;45636.09;5093348;28;20200;-78
2023/12/08 04:11:08;;;;;;;16.30;15.70;;;;;;;-141.02;100.00;45701.41;5092878;28;20312;-78
2023/12/08 04:13:35;;;;;;;15.47;14.87;;;;;;;-141.02;100.00;45641.84;5093222;28;20232;-79
2023/12/08 04:16:04;;;;;;;15.60;15.00;;;;;;;-141.02;100.00;45670.69;5093250;28;20208;-79
2023/12/08 04:18:31;;;;;;;16.40;15.80;;;;;;;-141.02;100.00;45907.00;5093209;28;20193;-79
2023/12/08 04:20:58;;;;;;;15.20;14.70;;;;;;;-141.02;100.00;45776.34;5093000;28;20205;-78
2023/12/08 04:23:26;;;;;;;16.73;16.07;;;;;;;-141.02;100.00;45762.91;5092938;28;20194;-78
2023/12/08 04:25:53;;;;;;;17.70;17.00;;;;;;;-141.02;100.00;45574.63;5092570;28;20799;-79
2023/12/08 04:28:20;;;;;;;16.80;16.10;;;;;;;-141.02;100.00;45532.34;5092627;28;20673;-79
2023/12/08 04:30:47;;;;;;;17.10;16.40;;;;;;;-141.02;100.00;45313.31;5093009;28;20628;-80
2023/12/08 04:33:14;;;;;;;16.43;15.83;;;;;;;-141.02;100.00;45052.06;5092996;28;20225;-79
2023/12/08 04:35:41;;;;;;;17.30;16.60;;;;;;;-141.02;100.00;45274.91;5092586;28;20582;-78
2023/12/08 04:38:08;;;;;;;16.70;16.07;;;;;;;-141.02;100.00;45301.78;5092407;28;20660;-78
2023/12/08 04:40:36;;;;;;;17.27;16.47;;;;;;;-141.02;100.00;45125.06;5092782;28;20608;-78
2023/12/08 04:43:03;;;;;;;20.47;19.47;;;;;;;-141.02;100.00;45217.28;5092438;28;20664;-78
2023/12/08 04:45:30;;;;;;;16.70;16.03;;;;;;;-141.02;100.00;44998.28;5092314;28;20251;-78
2023/12/08 04:47:58;;;;;;;17.33;16.43;;;;;;;-141.02;100.00;44817.69;5092714;28;20221;-79
2023/12/08 04:50:25;;;;;;;20.63;19.83;;;;;;;-141.02;100.00;44548.78;5092571;28;20198;-78
2023/12/08 04:52:51;;;;;;;19.00;18.30;;;;;;;-141.02;100.00;44425.88;5092671;28;20551;-78
2023/12/08 04:55:18;;;;;;;16.03;15.43;;;;;;;-141.02;100.00;44339.44;5092536;28;20237;-78
2023/12/08 04:57:47;;;;;;;17.13;16.53;;;;;;;-141.02;100.00;44383.59;5092212;28;20194;-78
2023/12/08 05:00:14;;;;;;;17.53;16.83;;;;;;;-141.02;100.00;44433.53;5092193;28;20226;-79
2023/12/08 05:02:41;;;;;;;17.27;16.57;;;;;;;-141.02;100.00;44495.00;5092057;28;20322;-78
2023/12/08 05:05:08;;;;;;;17.37;16.67;;;;;;;-141.02;100.00;44525.75;5092350;28;20469;-78
2023/12/08 05:07:35;;;;;;;15.90;15.30;;;;;;;-141.02;100.00;44456.59;5092149;28;20198;-78
2023/12/08 05:10:02;;;;;;;17.60;16.90;;;;;;;-141.02;100.00;44610.25;5092110;28;20233;-79
2023/12/08 05:12:29;;;;;;;18.47;17.67;;;;;;;-141.02;100.00;44752.38;5091987;28;20662;-78
2023/12/08 05:14:57;;;;;;;17.33;16.63;;;;;;;-141.02;100.00;44608.34;5092410;28;20189;-78
2023/12/08 05:17:24;;;;;;;17.30;16.60;;;;;;;-141.02;100.00;44571.84;5095952;28;20277;-79
2023/12/08 05:19:51;;;;;;;16.00;15.40;;;;;;;-141.02;100.00;44715.91;5096111;28;20671;-78
2023/12/08 05:22:18;;;;;;;15.57;14.97;;;;;;;-141.02;100.00;44954.09;5096461;28;20200;-79
2023/12/08 05:24:45;;;;;;;15.40;14.90;;;;;;;-141.02;100.00;45078.94;5096393;28;20189;-79
2023/12/08 05:27:12;;;;;;;17.03;16.33;;;;;;;-141.02;100.00;45209.59;5096262;28;20674;-78
2023/12/08 05:29:39;;;;;;;16.23;15.63;;;;;;;-141.02;100.00;45052.06;5095946;28;20280;-78
2023/12/08 05:32:10;;;;;;;17.10;16.40;;;;;;;-141.02;100.00;45128.91;5095932;28;20190;-79
2023/12/08 05:34:36;;;;;;;17.67;16.87;;;;;;;-141.02;100.00;45150.03;5096258;28;20192;-79
2023/12/08 05:37:03;;;;;;;18.00;17.20;;;;;;;-141.02;100.00;45246.09;5095891;28;20194;-79
2023/12/08 05:39:30;;;;;;;16.27;15.67;;;;;;;-141.02;100.00;45236.47;5096177;28;20204;-79
2023/12/08 05:41:57;;;;;;;17.23;16.53;;;;;;;-141.02;100.00;45413.22;5095812;28;20196;-79
2023/12/08 05:44:24;;;;;;;16.17;15.57;;;;;;;-141.02;100.00;45171.16;5096053;28;20194;-79
2023/12/08 05:46:51;;;;;;;15.20;14.70;;;;;;;-141.02;100.00;45420.91;5095726;28;20225;-78
2023/12/08 05:49:19;;;;;;;16.80;16.10;;;;;;;-141.02;100.00;45797.50;5095974;28;20574;-79
2023/12/08 05:51:46;;;;;;;16.80;16.10;;;;;;;-141.02;100.00;45785.97;5095591;28;20197;-79
2023/12/08 05:54:13;;;;;;;16.40;15.80;;;;;;;-141.02;100.00;46070.34;5095779;28;20759;-79
2023/12/08 05:56:40;;;;;;;17.73;17.03;;;;;;;-141.02;100.00;45684.13;5095875;28;20206;-78
2023/12/08 05:59:07;;;;;;;18.03;17.33;;;;;;;-141.02;100.00;45766.75;5095533;28;20367;-78
2023/12/08 06:01:34;;;;;;;17.23;16.53;;;;;;;-141.02;100.00;46091.47;5095691;28;20194;-79
2023/12/08 06:04:01;;;;;;;15.93;15.33;;;;;;;-141.02;100.00;46062.66;5095356;28;20564;-78
2023/12/08 06:06:31;;;;;;;16.73;16.03;;;;;;;-141.02;100.00;46195.25;5095190;28;20227;-79
2023/12/08 06:08:58;;;;;;;15.90;15.30;;;;;;;-141.02;100.00;46285.56;5095784;28;20212;-79
2023/12/08 06:11:27;;;;;;;15.10;14.50;;;;;;;-141.02;100.00;45885.88;5095077;28;20312;-79
2023/12/08 06:13:54;;;;;;;16.33;15.63;;;;;;;-141.02;100.00;46124.16;5095195;28;20259;-79
2023/12/08 06:16:21;;;;;;;15.77;15.17;;;;;;;-141.02;100.00;46108.78;5095220;28;20190;-79
2023/12/08 06:18:48;;;;;;;16.00;15.40;;;;;;;-141.02;100.00;46454.69;5095129;28;20698;-79
2023/12/08 06:21:15;;;;;;;16.63;15.93;;;;;;;-141.02;100.00;46754.50;5095359;28;20202;-79
2023/12/08 06:23:43;;;;;;;16.00;15.40;;;;;;;-141.02;100.00;46635.34;5095356;28;20216;-79
2023/12/08 06:26:10;;;;;;;16.17;15.57;;;;;;;-141.02;100.00;46679.53;5095137;28;20233;-79
2023/12/08 06:28:37;;;;;;;16.90;16.30;;;;;;;-141.02;100.00;46989.00;5094250;28;20216;-79
2023/12/08 06:31:04;;;;;;;17.80;17.10;;;;;;;-141.02;100.00;47046.66;5094859;28;20580;-79
2023/12/08 06:33:31;;;;;;;17.97;17.17;;;;;;;-141.02;100.00;47165.84;5094857;28;20208;-79
2023/12/08 06:35:58;;;;;;;18.20;17.40;;;;;;;-141.02;100.00;47050.50;5094696;28;20229;-79
2023/12/08 06:38:25;;;;;;;18.43;17.63;;;;;;;-141.02;100.00;47188.91;5095057;28;20190;-79
2023/12/08 06:40:55;;;;;;;17.70;17.00;;;;;;;-141.02;100.00;46983.22;5094974;28;20197;-79
2023/12/08 06:43:22;;;;;;;16.93;16.30;;;;;;;-141.02;100.00;46969.78;5094911;28;20281;-79
2023/12/08 06:45:49;;;;;;;17.37;16.67;;;;;;;-141.02;100.00;47162.00;5094801;28;20231;-79
2023/12/08 06:48:17;;;;;;;18.03;17.33;;;;;;;-141.02;100.00;47315.78;5094489;28;20578;-79
2023/12/08 06:50:44;;;;;;;17.23;16.53;;;;;;;-141.02;100.00;47304.22;5094784;28;20190;-79
2023/12/08 06:53:11;;;;;;;17.30;16.60;;;;;;;-141.02;100.00;47434.97;5094700;28;20208;-79
2023/12/08 06:55:37;;;;;;;16.93;16.23;;;;;;;-141.02;100.00;47338.84;5094421;28;20193;-79
2023/12/08 06:58:06;;;;;;;16.20;15.60;;;;;;;-141.02;100.00;47242.72;5094381;28;20233;-79
2023/12/08 07:00:33;;;;;;;16.93;16.33;;;;;;;-141.02;100.00;47342.69;5094279;28;20198;-79
2023/12/08 07:03:00;;;;;;;16.93;16.30;;;;;;;-141.02;100.00;47661.81;5094249;28;20197;-79
2023/12/08 07:05:27;;;;;;;18.13;17.43;;;;;;;-141.02;100.00;47673.34;5094437;28;20194;-78
2023/12/08 07:07:55;;;;;;;17.73;17.03;;;;;;;-141.02;100.00;47854.06;5094146;28;20205;-79
2023/12/08 07:10:21;;;;;;;18.10;17.40;;;;;;;-141.02;100.00;48092.47;5093921;28;20228;-79
2023/12/08 07:12:49;;;;;;;16.87;16.17;;;;;;;-141.02;100.00;48202.06;5094294;28;20271;-79
2023/12/08 07:15:17;;;;;;;17.53;16.83;;;;;;;-141.02;100.00;48427.03;5094305;28;20197;-79
2023/12/08 07:17:44;;;;;;;16.33;15.73;;;;;;;-141.02;100.00;48144.38;5093896;28;20676;-79
2023/12/08 07:20:12;;;;;;;16.10;15.50;;;;;;;-141.02;100.00;48219.38;5093958;28;20197;-78
2023/12/08 07:22:40;;;;;;;15.23;14.73;;;;;;;-141.02;100.00;48273.22;5094237;28;20193;-78
2023/12/08 07:25:10;;;;;;;17.13;16.53;;;;;;;-141.02;100.00;48152.06;5094132;28;20273;-78
2023/12/08 07:27:36;;;;;;;16.53;15.93;;;;;;;-141.02;100.00;48023.25;5094085;28;20225;-79
2023/12/08 07:30:04;;;;;;;16.50;15.90;;;;;;;-141.02;100.00;48238.59;5094030;28;20194;-78
2023/12/08 07:32:33;;;;;;;17.00;16.30;;;;;;;-141.02;100.00;48300.13;5093662;28;20208;-78
2023/12/08 07:35:00;;;;;;;17.70;17.00;;;;;;;-141.02;100.00;48725.13;5093908;28;20194;-79
2023/12/08 07:37:27;;;;;;;17.60;16.90;;;;;;;-141.02;100.00;48846.28;5093629;28;20574;-78
2023/12/08 07:39:53;;;;;;;16.83;16.13;;;;;;;-141.02;100.00;48959.75;5092779;28;20285;-78
2023/12/08 07:42:20;;;;;;;14.90;14.40;;;;;;;-141.02;100.00;49211.69;5093465;28;20284;-78
2023/12/08 07:44:47;;;;;;;14.60;14.10;;;;;;;-141.02;100.00;49227.06;5093754;28;20229;-79
2023/12/08 07:47:14;;;;;;;15.37;14.77;;;;;;;-141.02;100.00;49604.09;5093636;28;20237;-79
2023/12/08 07:49:43;;;;;;;16.57;15.97;;;;;;;-141.02;100.00;49854.16;5093693;28;20201;-78
2023/12/08 07:52:10;;;;;;;17.07;16.37;;;;;;;-141.02;100.00;49804.16;5093378;28;20683;-78
2023/12/08 07:54:37;;;;;;;17.07;16.37;;;;;;;-141.02;100.00;49888.78;5093247;28;20582;-79
2023/12/08 07:57:04;;;;;;;17.77;17.07;;;;;;;-141.02;100.00;49998.44;5093270;28;20194;-78
2023/12/08 07:59:31;;;;;;;16.73;16.03;;;;;;;-141.02;100.00;50312.03;5093172;28;20244;-78
2023/12/08 08:01:58;;;;;;;16.80;16.10;;;;;;;-141.02;100.00;49442.50;5093155;28;20205;-78
2023/12/08 08:04:25;;;;;;;17.50;16.70;;;;;;;-141.02;100.00;49405.97;5093075;28;20237;-78
2023/12/08 08:06:53;;;;;;;19.73;18.83;;;;;;;-141.02;100.00;49396.34;5093279;28;20236;-78
2023/12/08 08:09:20;;;;;;;20.30;19.40;;;;;;;-141.02;100.00;49611.78;5093079;28;20200;-77
2023/12/08 08:11:48;;;;;;;17.50;16.70;;;;;;;-141.02;100.00;49977.28;5092923;28;20232;-78
2023/12/08 08:14:15;;;;;;;17.93;17.13;;;;;;;-141.02;100.00;49738.75;5092848;28;20686;-77
2023/12/08 08:16:42;;;;;;;18.27;17.47;;;;;;;-141.02;100.00;49396.34;5093113;28;20229;-77
2023/12/08 08:19:09;;;;;;;18.20;17.40;;;;;;;-141.02;100.00;49005.91;5093113;28;20276;-76
2023/12/08 08:21:36;;;;;;;19.53;18.63;;;;;;;-141.02;100.00;48715.50;5092730;28;20280;-76
2023/12/08 09:55:18;;;;;;;35.73;33.73;;;;;;;-141.02;100.00;52363.66;5130888;27;20544;-78
2023/12/08 09:57:45;;;;;;;42.50;40.00;;;;;;;-141.02;100.00;50750.75;5130338;28;20199;-77
2023/12/08 10:00:13;;;;;;;45.27;42.47;;;;;;;-141.02;100.00;50712.25;5130549;28;20306;-78
2023/12/08 10:02:41;;;;;;;30.23;28.33;;;;;;;-141.02;100.00;50439.03;5130145;28;20257;-79
2023/12/08 10:05:10;;;;;;;47.63;44.73;;;;;;;-141.02;100.00;50596.81;5130126;28;20662;-78
2023/12/08 10:07:40;;;;;;;45.43;42.73;;;;;;;-141.02;100.00;49338.63;5130115;27;20196;-79
2023/12/08 10:10:09;;;;;;;45.37;42.57;;;;;;;-141.02;100.00;48423.19;5130622;27;20215;-79
2023/12/08 10:12:38;;;;;;;45.93;43.23;;;;;;;-141.02;100.00;48242.44;5129916;28;20245;-78
2023/12/08 10:15:10;;;;;;;45.40;42.70;;;;;;;-141.02;100.00;47306.16;5129855;28;20200;-78
2023/12/08 10:17:46;;;;;;;43.17;40.57;;;;;;;-141.02;100.00;48071.31;5130203;27;20192;-78
2023/12/08 10:20:14;;;;;;;43.30;40.70;;;;;;;-141.02;100.00;48296.28;5129886;28;20270;-78
2023/12/08 10:22:49;;;;;;;44.00;41.40;;;;;;;-141.02;100.00;48065.56;5129714;28;20650;-78
2023/12/08 10:25:16;;;;;;;41.90;39.40;;;;;;;-141.02;100.00;47131.22;5130068;28;20192;-78
2023/12/08 10:27:46;;;;;;;43.27;40.67;;;;;;;-141.02;100.00;47261.94;5129585;28;20197;-78
2023/12/08 10:30:14;;;;;;;38.70;36.30;;;;;;;-141.02;100.00;46923.63;5129933;28;20196;-77
2023/12/08 10:32:42;;;;;;;37.40;35.20;;;;;;;-141.02;100.00;46658.41;5129632;27;20673;-78
2023/12/08 10:35:10;;;;;;;42.70;40.20;;;;;;;-141.02;100.00;46550.78;5129858;28;20189;-80
2023/12/08 10:37:37;;;;;;;38.67;36.37;;;;;;;-141.02;100.00;45793.66;5129753;28;20196;-79
2023/12/08 10:40:04;;;;;;;37.33;35.13;;;;;;;-141.02;100.00;45730.25;5129443;28;20688;-80
2023/12/08 10:42:32;;;;;;;35.33;33.20;;;;;;;-141.02;100.00;45805.19;5129680;28;20197;-79
2023/12/08 10:45:01;;;;;;;21.60;20.10;;;;;;;-141.02;100.00;45666.84;5129620;28;20220;-79
2023/12/08 10:47:28;;;;;;;25.27;23.67;;;;;;;-141.02;100.00;46235.59;5129628;28;20275;-80
2023/12/08 10:49:57;;;;;;;24.00;22.50;;;;;;;-141.02;100.00;45820.56;5129548;28;20188;-80
2023/12/08 10:52:26;;;;;;;20.10;18.70;;;;;;;-141.02;100.00;45540.03;5129234;27;20279;-79
2023/12/08 10:54:53;;;;;;;20.17;18.77;;;;;;;-141.02;100.00;45530.41;5122652;27;20324;-79
2023/12/08 10:57:20;;;;;;;20.10;18.70;;;;;;;-141.02;100.00;45407.47;5115795;28;20193;-80
2023/12/08 10:59:53;;;;;;;20.23;18.87;;;;;;;-141.02;100.00;45321.00;5115774;28;20231;-80
2023/12/08 11:02:31;;;;;;;20.63;19.33;;;;;;;-141.02;100.00;45321.00;5115438;28;20196;-80
2023/12/08 11:05:06;;;;;;;21.07;19.77;;;;;;;-141.02;100.00;45324.84;5115618;28;20223;-81
2023/12/08 11:07:34;;;;;;;25.13;23.63;;;;;;;-141.02;100.00;45401.69;5115377;27;20196;-80
2023/12/08 11:10:07;;;;;;;25.83;24.23;;;;;;;-141.02;100.00;45155.78;5115192;28;20197;-80
2023/12/08 11:12:40;;;;;;;20.67;19.27;;;;;;;-141.02;100.00;45232.63;5115538;28;20193;-80
2023/12/08 11:15:16;;;;;;;19.60;18.20;;;;;;;-141.02;100.00;45486.22;5115487;28;20208;-81
2023/12/08 11:17:50;;;;;;;19.43;18.03;;;;;;;-141.02;100.00;45434.34;5115140;28;20286;-81
2023/12/08 11:20:18;;;;;;;19.93;18.43;;;;;;;-141.02;100.00;45419.00;5115143;28;20184;-79
2023/12/08 11:22:47;;;;;;;19.73;18.33;;;;;;;-141.02;100.00;45297.94;5115210;28;20197;-79
2023/12/08 11:25:22;;;;;;;19.33;18.03;;;;;;;-141.02;100.00;45161.56;5115273;28;20201;-78
2023/12/08 11:27:56;;;;;;;20.70;19.30;;;;;;;-141.02;100.00;45194.22;5115073;28;20193;-81
2023/12/08 11:30:30;;;;;;;20.23;18.73;;;;;;;-141.02;100.00;44571.84;5115145;28;20196;-78
2023/12/08 11:33:07;;;;;;;24.97;23.27;;;;;;;-141.02;100.00;44316.38;5114805;28;20225;-81
2023/12/08 11:35:34;;;;;;;24.60;22.90;;;;;;;-141.02;100.00;44272.22;5115093;28;20271;-78
2023/12/08 11:38:04;;;;;;;18.90;17.50;;;;;;;-141.02;100.00;44326.00;5114997;28;20193;-78
2023/12/08 11:40:31;;;;;;;18.53;17.23;;;;;;;-141.02;100.00;44456.59;5115165;28;20621;-79
2023/12/08 11:42:58;;;;;;;19.23;17.93;;;;;;;-141.02;100.00;44381.69;5114510;28;20714;-77
2023/12/08 11:45:26;;;;;;;18.70;17.40;;;;;;;-141.02;100.00;44349.03;5114855;28;20280;-80
2023/12/08 11:47:53;;;;;;;18.80;17.50;;;;;;;-141.02;100.00;44335.59;5114897;28;20197;-77
2023/12/08 11:50:21;;;;;;;20.37;19.07;;;;;;;-141.02;100.00;44750.47;5114500;28;20232;-79
2023/12/08 11:52:49;;;;;;;20.57;19.17;;;;;;;-141.02;100.00;44068.63;5114159;28;20576;-77
2023/12/08 11:55:20;;;;;;;20.93;19.53;;;;;;;-141.02;100.00;44060.97;5114361;28;20239;-77
2023/12/08 11:57:54;;;;;;;19.53;18.13;;;;;;;-141.02;100.00;44310.63;5114278;28;20665;-77
2023/12/08 12:00:22;;;;;;;18.87;17.57;;;;;;;-141.02;100.00;44564.16;5114590;28;20229;-77
2023/12/08 12:02:50;;;;;;;18.23;16.93;;;;;;;-141.02;100.00;44850.34;5114124;28;20239;-77
2023/12/08 12:05:18;;;;;;;19.07;17.67;;;;;;;-141.02;100.00;44011.03;5114287;28;20311;-77
2023/12/08 12:07:50;;;;;;;18.57;17.27;;;;;;;-141.02;100.00;44145.47;5113022;28;20261;-80
2023/12/08 12:10:19;;;;;;;18.80;17.40;;;;;;;-141.02;100.00;43926.53;5114315;28;20193;-81
2023/12/08 12:12:50;;;;;;;18.87;17.57;;;;;;;-141.02;100.00;44003.34;5113869;28;20654;-78
2023/12/08 12:15:20;;;;;;;19.70;18.40;;;;;;;-141.02;100.00;43890.03;5113926;28;20559;-79
2023/12/08 12:17:48;;;;;;;19.63;18.33;;;;;;;-141.02;100.00;43930.38;5113874;28;20280;-79
2023/12/08 12:20:15;;;;;;;19.20;18.00;;;;;;;-141.02;100.00;44011.03;5114128;28;20278;-80
2023/12/08 12:22:42;;;;;;;18.70;17.60;;;;;;;-141.02;100.00;44137.78;5113790;28;20200;-79
2023/12/08 12:25:11;;;;;;;18.70;17.57;;;;;;;-141.02;100.00;44233.81;5113598;28;20235;-80
2023/12/08 12:27:41;;;;;;;18.67;17.53;;;;;;;-141.02;100.00;44326.00;5113924;28;20245;-77